Time;durP1;ratioP1;P1;durP2;ratioP2;P2;SDS_P1;SDS_P2;PMS_P1;PMS_P2;Temp;Humidity;BMP_temperature;BMP_pressure;BME280_temperature;BME280_humidity;BME280_pressure;Samples;Min_cycle;Max_cycle;Signal;HPM_P1;HPM_P2
2023/09/26 00:00:25;;;;;;;7.13;5.45;;;;;;;20.10;63.38;95211.06;5098352;28;20200;-69
2023/09/26 00:02:52;;;;;;;10.25;4.80;;;;;;;20.03;63.84;95202.72;5097370;28;20239;-69
2023/09/26 00:05:23;;;;;;;6.32;5.05;;;;;;;19.88;64.46;95210.41;5097011;28;20212;-69
2023/09/26 00:07:52;;;;;;;5.38;4.88;;;;;;;19.71;64.62;95214.09;5097373;28;20212;-69
2023/09/26 00:10:20;;;;;;;5.13;4.63;;;;;;;19.65;65.19;95213.75;5097569;28;20204;-69
2023/09/26 00:12:49;;;;;;;6.05;4.35;;;;;;;19.63;65.44;95209.75;5079882;28;20215;-68
2023/09/26 00:15:19;;;;;;;7.07;4.55;;;;;;;19.64;65.74;95203.75;5096767;28;20202;-69
2023/09/26 00:17:51;;;;;;;11.27;4.95;;;;;;;19.66;65.52;95209.75;5097384;28;20189;-69
2023/09/26 00:20:20;;;;;;;6.47;4.72;;;;;;;19.65;65.49;95202.56;5097895;28;20202;-69
2023/09/26 00:22:47;;;;;;;5.07;4.55;;;;;;;19.67;65.21;95200.13;5097926;28;20184;-69
2023/09/26 00:25:16;;;;;;;5.53;5.03;;;;;;;19.68;65.07;95206.53;5097919;28;20200;-69
2023/09/26 00:27:44;;;;;;;7.18;5.20;;;;;;;19.60;65.89;95205.75;5097580;28;20264;-68
2023/09/26 00:30:13;;;;;;;7.15;4.90;;;;;;;19.50;66.00;95209.41;5096456;28;20197;-68
2023/09/26 00:32:44;;;;;;;6.72;5.32;;;;;;;19.48;65.62;95209.00;5096630;28;20236;-68
2023/09/26 00:35:15;;;;;;;6.25;5.20;;;;;;;19.45;65.99;95209.81;5096838;28;20536;-68
2023/09/26 00:37:43;;;;;;;5.65;5.10;;;;;;;19.47;65.83;95202.63;5096900;28;20211;-68
2023/09/26 00:40:15;;;;;;;7.93;5.15;;;;;;;19.47;65.56;95211.03;5097269;28;20296;-68
2023/09/26 00:42:44;;;;;;;6.22;4.97;;;;;;;19.47;65.17;95213.03;5096552;28;20204;-68
2023/09/26 00:45:13;;;;;;;5.40;4.90;;;;;;;19.49;65.00;95210.59;5096055;28;20208;-68
2023/09/26 00:47:42;;;;;;;5.90;4.85;;;;;;;19.49;64.12;95200.19;5096546;28;20204;-68
2023/09/26 00:50:16;;;;;;;6.13;4.50;;;;;;;19.51;63.99;95205.41;5097490;28;20267;-68
2023/09/26 00:52:45;;;;;;;7.13;4.70;;;;;;;19.46;64.03;95203.00;5095953;28;20294;-68
2023/09/26 00:55:15;;;;;;;5.97;4.40;;;;;;;19.44;62.92;95211.03;5096009;28;20200;-68
2023/09/26 00:57:42;;;;;;;7.50;4.28;;;;;;;19.47;62.94;95204.63;5096140;28;20204;-68
2023/09/26 01:00:14;;;;;;;5.75;4.18;;;;;;;19.42;61.74;95208.63;5096435;28;20596;-68
2023/09/26 01:02:42;;;;;;;6.85;4.22;;;;;;;19.43;61.15;95210.25;5097263;28;20595;-68
2023/09/26 01:05:09;;;;;;;7.28;3.72;;;;;;;19.41;61.02;95211.84;5096113;28;20234;-68
2023/09/26 01:07:39;;;;;;;4.53;3.97;;;;;;;19.37;60.83;95208.28;5096353;28;20192;-68
2023/09/26 01:10:07;;;;;;;7.80;4.18;;;;;;;19.34;60.67;95214.66;5096769;28;20196;-68
2023/09/26 01:12:38;;;;;;;6.00;4.18;;;;;;;19.32;60.24;95205.88;5095948;28;20185;-68
2023/09/26 01:15:06;;;;;;;5.25;3.72;;;;;;;19.30;60.08;95208.31;5095555;28;20238;-68
2023/09/26 01:17:34;;;;;;;4.38;3.97;;;;;;;19.27;59.50;95207.09;5095968;28;20214;-68
2023/09/26 01:20:08;;;;;;;4.75;4.18;;;;;;;19.28;59.45;95203.13;5095750;28;20197;-68
2023/09/26 01:22:37;;;;;;;6.78;4.10;;;;;;;19.26;59.06;95197.13;5096376;28;20204;-68
2023/09/26 01:25:06;;;;;;;7.80;4.40;;;;;;;19.22;59.16;95197.16;5095560;28;20220;-69
2023/09/26 01:27:34;;;;;;;6.68;3.92;;;;;;;19.21;59.12;95197.56;5096583;28;20180;-69
2023/09/26 01:30:03;;;;;;;7.10;4.18;;;;;;;19.22;59.19;95196.34;5096543;28;20189;-69
2023/09/26 01:32:31;;;;;;;7.40;4.45;;;;;;;19.22;59.18;95199.16;5095362;28;20281;-69
2023/09/26 01:34:59;;;;;;;4.68;4.20;;;;;;;19.20;59.53;95199.53;5095807;28;20249;-69
2023/09/26 01:37:27;;;;;;;7.43;4.28;;;;;;;19.18;59.41;95206.75;5096336;28;20188;-69
2023/09/26 01:39:56;;;;;;;6.03;4.35;;;;;;;19.12;60.16;95202.78;5095518;28;20624;-69
2023/09/26 01:42:28;;;;;;;5.97;4.20;;;;;;;19.10;60.92;95208.78;5095442;28;20234;-69
2023/09/26 01:44:55;;;;;;;6.28;4.53;;;;;;;19.10;60.92;95205.16;5095104;28;20212;-69
2023/09/26 01:47:33;;;;;;;5.75;4.28;;;;;;;19.12;60.45;95197.19;5095187;28;20207;-68
2023/09/26 01:50:00;;;;;;;7.25;4.88;;;;;;;19.12;60.85;95206.38;5095540;28;20291;-68
2023/09/26 01:52:32;;;;;;;4.97;4.30;;;;;;;19.12;60.26;95203.56;5095261;28;20208;-68
2023/09/26 01:55:00;;;;;;;5.45;4.10;;;;;;;19.08;60.33;95205.59;5095216;28;20192;-68
2023/09/26 01:57:30;;;;;;;6.63;4.72;;;;;;;19.08;60.33;95199.19;5094768;28;20192;-69
2023/09/26 02:00:01;;;;;;;5.93;4.35;;;;;;;19.03;59.87;95213.56;5095418;28;20199;-69
2023/09/26 02:02:29;;;;;;;9.10;4.40;;;;;;;19.03;59.79;95216.38;5094814;28;20226;-69
2023/09/26 02:04:56;;;;;;;7.65;4.18;;;;;;;18.96;59.83;95208.84;5094971;28;20219;-68
2023/09/26 02:07:24;;;;;;;6.55;4.50;;;;;;;19.02;59.98;95212.00;5111527;28;20196;-68
2023/09/26 02:09:52;;;;;;;10.00;4.75;;;;;;;19.04;59.51;95216.00;5095330;28;20188;-68
2023/09/26 02:12:20;;;;;;;6.03;4.28;;;;;;;19.07;59.08;95217.19;5096030;28;20538;-68
2023/09/26 02:14:50;;;;;;;6.75;4.45;;;;;;;19.07;58.97;95206.78;5094614;28;20279;-68
2023/09/26 02:17:18;;;;;;;7.40;3.95;;;;;;;19.05;59.42;95216.78;5094383;28;20203;-68
2023/09/26 02:19:45;;;;;;;7.43;4.35;;;;;;;19.06;58.86;95209.97;5095060;28;20577;-68
2023/09/26 02:22:13;;;;;;;6.47;4.10;;;;;;;19.02;57.94;95209.19;5094889;28;20207;-68
2023/09/26 02:24:43;;;;;;;7.95;4.57;;;;;;;19.03;58.38;95206.00;5094815;28;20224;-68
2023/09/26 02:27:11;;;;;;;6.75;4.03;;;;;;;19.05;57.35;95202.81;5095187;28;20196;-68
2023/09/26 02:29:39;;;;;;;6.95;3.78;;;;;;;19.08;56.84;95200.00;5095200;28;20623;-68
2023/09/26 02:32:08;;;;;;;7.60;3.80;;;;;;;19.06;56.61;95198.78;5094723;28;20238;-68
2023/09/26 02:34:37;;;;;;;5.88;4.28;;;;;;;19.04;56.86;95204.00;5111216;28;20283;-68
2023/09/26 02:37:03;;;;;;;6.28;3.80;;;;;;;19.01;56.71;95205.59;5093912;28;20535;-68
2023/09/26 02:39:32;;;;;;;9.82;4.55;;;;;;;18.97;56.88;95202.03;5111166;28;20196;-68
2023/09/26 02:41:58;;;;;;;9.02;4.07;;;;;;;18.91;57.68;95196.03;5094295;28;20222;-68
2023/09/26 02:44:26;;;;;;;6.60;4.03;;;;;;;18.88;56.20;95196.06;5094354;28;20302;-68
2023/09/26 02:46:55;;;;;;;5.38;4.00;;;;;;;18.87;57.30;95191.69;5094432;28;20204;-68
2023/09/26 02:49:25;;;;;;;5.95;3.53;;;;;;;18.86;56.73;95195.69;5094003;28;20203;-68
2023/09/26 02:51:52;;;;;;;7.85;4.20;;;;;;;18.86;56.32;95201.28;5094372;28;20291;-68
2023/09/26 02:54:20;;;;;;;5.75;3.63;;;;;;;18.84;55.58;95198.84;5095311;28;20271;-68
2023/09/26 02:56:49;;;;;;;8.52;4.05;;;;;;;18.88;55.77;95194.09;5094302;28;20203;-68
2023/09/26 02:59:15;;;;;;;7.25;3.25;;;;;;;18.86;55.09;95196.47;5095126;28;20192;-68
2023/09/26 03:01:44;;;;;;;6.03;3.78;;;;;;;18.86;54.42;95202.06;5094729;28;20214;-69
2023/09/26 03:04:12;;;;;;;6.75;3.80;;;;;;;18.90;54.39;95194.47;5094732;28;20187;-70
2023/09/26 03:06:44;;;;;;;5.55;3.63;;;;;;;18.93;54.23;95201.25;5094415;28;20208;-69
2023/09/26 03:09:10;;;;;;;8.75;4.18;;;;;;;18.93;54.78;95204.03;5094662;28;20246;-72
2023/09/26 03:11:37;;;;;;;9.80;4.03;;;;;;;18.92;53.96;95199.66;5094398;28;20291;-66
2023/09/26 03:14:05;;;;;;;6.32;4.30;;;;;;;18.91;56.48;95198.84;5094895;28;20204;-66
2023/09/26 03:16:34;;;;;;;10.52;4.28;;;;;;;18.95;55.87;95205.25;5098537;28;20317;-66
2023/09/26 03:19:02;;;;;;;7.38;3.75;;;;;;;19.03;57.20;95213.56;5098207;28;20203;-66
2023/09/26 03:21:30;;;;;;;4.07;3.67;;;;;;;19.04;56.35;95202.00;5098955;28;20200;-66
2023/09/26 03:24:02;;;;;;;7.50;3.88;;;;;;;19.07;55.67;95204.00;5097785;28;20206;-66
2023/09/26 03:26:30;;;;;;;6.03;4.20;;;;;;;19.07;55.45;95209.59;5098076;28;20204;-67
2023/09/26 03:28:59;;;;;;;6.03;3.75;;;;;;;19.10;54.80;95205.16;5098064;28;20514;-66
2023/09/26 03:31:28;;;;;;;7.72;3.92;;;;;;;19.09;55.32;95209.16;5097736;28;20236;-66
2023/09/26 03:33:58;;;;;;;6.28;4.57;;;;;;;19.10;55.58;95197.59;5097826;28;20196;-66
2023/09/26 03:36:26;;;;;;;7.70;6.90;;;;;;;19.12;55.67;95206.38;5098360;28;20180;-66
2023/09/26 03:38:54;;;;;;;8.52;7.38;;;;;;;19.10;55.98;95203.19;5097758;28;20199;-66
2023/09/26 03:41:25;;;;;;;7.78;7.07;;;;;;;19.07;56.65;95214.38;5097422;28;20200;-66
2023/09/26 03:43:53;;;;;;;6.15;5.30;;;;;;;19.09;57.12;95211.97;5097607;28;20311;-66
2023/09/26 03:46:21;;;;;;;11.23;7.53;;;;;;;19.15;57.31;95211.16;5098488;28;20200;-66
2023/09/26 03:48:50;;;;;;;6.80;5.90;;;;;;;19.13;56.63;95207.16;5098647;28;20195;-66
2023/09/26 03:51:21;;;;;;;9.38;5.00;;;;;;;19.10;56.64;95214.38;5097569;28;20192;-66
2023/09/26 03:53:49;;;;;;;9.68;5.10;;;;;;;19.10;56.51;95213.56;5098437;28;20181;-66
2023/09/26 03:56:17;;;;;;;8.30;5.07;;;;;;;19.14;56.61;95217.94;5097678;28;20232;-66
2023/09/26 03:58:46;;;;;;;7.97;4.63;;;;;;;19.17;56.35;95222.75;5097223;28;20200;-66
2023/09/26 04:01:16;;;;;;;6.13;4.78;;;;;;;19.14;56.43;95228.34;5097296;28;20220;-66
2023/09/26 04:03:46;;;;;;;5.85;4.10;;;;;;;19.12;56.35;95228.72;5098373;28;20200;-66
2023/09/26 04:06:15;;;;;;;8.32;4.80;;;;;;;19.09;56.57;95221.16;5097638;28;20219;-69
2023/09/26 04:08:43;;;;;;;7.88;4.28;;;;;;;19.07;56.54;95222.78;5097254;28;20287;-66
2023/09/26 04:11:14;;;;;;;6.30;4.28;;;;;;;19.04;56.87;95223.56;5114073;28;20206;-66
2023/09/26 04:13:42;;;;;;;8.98;4.55;;;;;;;19.01;56.15;95230.75;5097368;28;20196;-66
2023/09/26 04:16:11;;;;;;;4.70;4.25;;;;;;;18.98;56.76;95229.56;5096846;28;20196;-65
2023/09/26 04:18:39;;;;;;;22.08;4.78;;;;;;;19.01;57.17;95225.19;5097326;28;20292;-65
2023/09/26 04:21:08;;;;;;;8.07;4.45;;;;;;;18.99;56.51;95228.38;5113680;28;20204;-65
2023/09/26 04:23:39;;;;;;;6.00;4.13;;;;;;;18.98;56.63;95225.97;5097382;28;20273;-65
2023/09/26 04:26:13;;;;;;;9.38;4.18;;;;;;;18.97;56.52;95227.97;5112837;28;20212;-65
2023/09/26 04:28:42;;;;;;;6.38;4.30;;;;;;;18.98;57.36;95231.56;5097122;28;20261;-65
2023/09/26 04:31:19;;;;;;;5.95;4.53;;;;;;;18.96;56.02;95231.97;5096249;28;20224;-65
2023/09/26 04:33:48;;;;;;;9.68;4.95;;;;;;;18.94;56.40;95228.78;5097213;28;20192;-65
2023/09/26 04:36:15;;;;;;;10.27;4.85;;;;;;;18.96;56.06;95237.56;5096385;28;20203;-65
2023/09/26 04:38:44;;;;;;;10.48;4.40;;;;;;;18.96;55.82;95234.78;5096513;28;20200;-65
2023/09/26 04:41:11;;;;;;;7.53;4.38;;;;;;;18.94;55.95;95237.16;5096213;28;20245;-65
2023/09/26 04:43:39;;;;;;;6.95;4.57;;;;;;;18.89;55.50;95229.19;5096829;28;20200;-65
2023/09/26 04:46:11;;;;;;;8.25;4.20;;;;;;;18.85;55.34;95233.22;5096114;28;20284;-66
2023/09/26 04:48:44;;;;;;;6.60;4.20;;;;;;;18.88;56.23;95236.00;5097448;28;20196;-65
2023/09/26 04:51:12;;;;;;;8.50;3.97;;;;;;;18.89;55.50;95236.78;5096389;28;20180;-65
2023/09/26 04:53:40;;;;;;;8.10;4.43;;;;;;;18.92;55.39;95249.97;5096050;28;20604;-65
2023/09/26 04:56:08;;;;;;;9.52;4.70;;;;;;;18.88;55.33;95243.56;5096424;28;20291;-65
2023/09/26 04:58:35;;;;;;;6.38;4.03;;;;;;;18.85;55.35;95253.56;5096144;28;20197;-65
2023/09/26 05:01:15;;;;;;;12.55;4.82;;;;;;;18.84;55.76;95251.16;5095888;28;20204;-66
2023/09/26 05:03:45;;;;;;;6.00;4.35;;;;;;;18.82;56.01;95245.19;5096555;28;20200;-65
2023/09/26 05:06:14;;;;;;;6.65;4.50;;;;;;;18.80;55.41;95250.38;5113124;28;20228;-67
2023/09/26 05:08:42;;;;;;;7.05;4.38;;;;;;;18.79;55.34;95255.16;5096304;28;20242;-67
2023/09/26 05:11:14;;;;;;;8.75;4.78;;;;;;;18.76;55.22;95253.97;5096050;28;20298;-66
2023/09/26 05:13:43;;;;;;;7.47;4.50;;;;;;;18.80;55.58;95253.16;5096173;28;20192;-67
2023/09/26 05:16:14;;;;;;;8.65;4.40;;;;;;;18.83;55.55;95260.75;5112477;28;20302;-65
2023/09/26 05:18:43;;;;;;;8.90;4.13;;;;;;;18.88;55.54;95254.75;5095788;28;20199;-66
2023/09/26 05:21:13;;;;;;;9.90;4.85;;;;;;;18.93;55.27;95257.94;5095505;28;20232;-67
2023/09/26 05:23:44;;;;;;;12.23;4.40;;;;;;;18.98;55.66;95256.72;5095746;28;20211;-68
2023/09/26 05:26:13;;;;;;;7.28;4.68;;;;;;;19.00;55.60;95266.31;5096083;28;20212;-66
2023/09/26 05:28:44;;;;;;;6.07;4.32;;;;;;;19.00;54.65;95257.13;5095309;28;20295;-66
2023/09/26 05:31:10;;;;;;;9.10;4.35;;;;;;;19.00;54.86;95268.31;5095185;28;20297;-66
2023/09/26 05:33:39;;;;;;;8.32;4.57;;;;;;;19.02;54.83;95268.69;5113067;28;20287;-68
2023/09/26 05:36:07;;;;;;;12.27;4.85;;;;;;;19.04;54.38;95260.72;5095709;28;20536;-65
2023/09/26 05:38:39;;;;;;;7.75;4.18;;;;;;;19.04;54.89;95257.91;5094413;28;20283;-65
2023/09/26 05:41:06;;;;;;;9.90;4.47;;;;;;;19.08;54.92;95263.50;5095492;28;20197;-65
2023/09/26 05:43:34;;;;;;;9.65;4.75;;;;;;;19.13;54.48;95261.06;5095373;28;20192;-65
2023/09/26 05:46:04;;;;;;;11.18;5.35;;;;;;;19.21;54.72;95265.47;5095522;28;20234;-65
2023/09/26 05:48:32;;;;;;;10.38;5.05;;;;;;;19.25;54.08;95259.84;5095619;28;20215;-65
2023/09/26 05:51:00;;;;;;;10.23;4.82;;;;;;;19.27;54.28;95254.63;5095562;28;20283;-65
2023/09/26 05:53:29;;;;;;;8.80;4.32;;;;;;;19.30;53.77;95259.44;5095838;28;20181;-66
2023/09/26 05:56:03;;;;;;;7.90;4.95;;;;;;;19.28;53.92;95261.03;5111941;28;20620;-66
2023/09/26 05:58:31;;;;;;;7.57;3.95;;;;;;;19.30;54.47;95265.03;5095273;28;20196;-66
2023/09/26 06:01:07;;;;;;;7.72;3.95;;;;;;;19.28;53.46;95270.25;5095015;28;20200;-66
2023/09/26 06:03:37;;;;;;;8.52;4.13;;;;;;;19.28;53.53;95266.63;5094679;28;20191;-66
2023/09/26 06:06:06;;;;;;;9.52;4.20;;;;;;;19.28;53.47;95264.66;5094933;28;20216;-67
2023/09/26 06:08:34;;;;;;;7.28;4.13;;;;;;;19.30;53.67;95272.63;5094736;28;20292;-68
2023/09/26 06:11:07;;;;;;;10.82;4.25;;;;;;;19.27;53.60;95274.22;5094869;28;20294;-65
2023/09/26 06:13:35;;;;;;;9.73;4.00;;;;;;;19.31;53.35;95271.41;5094560;28;20199;-65
2023/09/26 06:16:05;;;;;;;10.77;4.32;;;;;;;19.34;53.36;95267.81;5094536;28;20276;-65
2023/09/26 06:18:34;;;;;;;11.43;4.15;;;;;;;19.38;53.48;95271.38;5095025;28;20211;-66
2023/09/26 06:21:04;;;;;;;10.90;4.70;;;;;;;19.42;53.14;95264.56;5094838;28;20541;-65
2023/09/26 06:23:33;;;;;;;9.40;4.55;;;;;;;19.47;53.38;95266.16;5094389;28;20204;-66
2023/09/26 06:26:01;;;;;;;7.68;4.35;;;;;;;19.47;52.89;95266.97;5094490;28;20228;-65
2023/09/26 06:28:30;;;;;;;8.93;4.30;;;;;;;19.49;53.12;95272.13;5094891;28;20188;-65
2023/09/26 06:31:05;;;;;;;10.27;4.40;;;;;;;19.54;53.36;95265.34;5096096;28;20688;-65
2023/09/26 06:33:33;;;;;;;10.18;4.50;;;;;;;19.58;52.67;95268.91;5097969;28;20195;-65
2023/09/26 06:36:01;;;;;;;8.27;4.40;;;;;;;19.56;53.10;95262.94;5098172;28;20227;-66
2023/09/26 06:38:29;;;;;;;13.25;4.25;;;;;;;19.57;52.81;95264.50;5098206;28;20286;-66
2023/09/26 06:41:03;;;;;;;8.55;4.10;;;;;;;19.54;52.22;95256.97;5098023;28;20287;-66
2023/09/26 06:43:33;;;;;;;10.90;4.30;;;;;;;19.52;52.59;95271.34;5097807;28;20198;-66
2023/09/26 06:46:04;;;;;;;10.27;4.57;;;;;;;19.55;52.85;95264.13;5097709;28;20218;-67
2023/09/26 06:48:32;;;;;;;9.25;4.18;;;;;;;19.58;52.96;95268.91;5097601;28;20203;-65
2023/09/26 06:51:00;;;;;;;6.60;4.05;;;;;;;19.61;53.18;95271.72;5097387;28;20199;-65
2023/09/26 06:53:28;;;;;;;9.57;4.50;;;;;;;19.63;52.84;95269.31;5097930;28;20274;-66
2023/09/26 06:56:03;;;;;;;7.07;3.92;;;;;;;19.64;52.94;95272.91;5098323;28;20206;-65
2023/09/26 06:58:30;;;;;;;7.32;4.38;;;;;;;19.65;53.08;95272.50;5097695;28;20528;-65
2023/09/26 07:00:59;;;;;;;11.68;4.07;;;;;;;19.69;53.09;95275.28;5114502;28;20682;-65
2023/09/26 07:03:27;;;;;;;8.32;4.20;;;;;;;19.70;52.94;95277.66;5114423;28;20195;-68
2023/09/26 07:05:54;;;;;;;5.78;3.83;;;;;;;19.71;53.36;95273.66;5097660;28;20288;-66
2023/09/26 07:08:22;;;;;;;9.60;4.30;;;;;;;19.73;53.31;95278.06;5097720;28;20298;-67
2023/09/26 07:10:51;;;;;;;6.78;3.67;;;;;;;19.75;52.90;95284.84;5097780;28;20522;-67
2023/09/26 07:13:21;;;;;;;7.50;4.20;;;;;;;19.78;53.01;95275.63;5097191;28;20195;-67
2023/09/26 07:16:03;;;;;;;9.43;4.30;;;;;;;19.80;52.89;95278.84;5097236;28;20222;-66
2023/09/26 07:18:32;;;;;;;10.15;4.03;;;;;;;19.89;53.48;95279.16;5097751;28;20228;-65
2023/09/26 07:21:04;;;;;;;5.20;3.60;;;;;;;19.98;52.96;95278.75;5097301;28;20191;-66
2023/09/26 07:23:33;;;;;;;10.68;3.97;;;;;;;20.03;52.74;95278.28;5097095;28;20215;-66
2023/09/26 07:26:09;;;;;;;6.05;3.97;;;;;;;20.05;53.47;95273.09;5114107;28;20305;-66
2023/09/26 07:28:38;;;;;;;8.57;4.75;;;;;;;20.15;52.88;95277.00;5097617;28;20195;-67
2023/09/26 07:31:08;;;;;;;9.18;4.20;;;;;;;20.20;53.06;95276.59;5097161;28;20316;-65
2023/09/26 07:33:39;;;;;;;7.43;4.03;;;;;;;20.24;53.25;95276.56;5097612;28;20192;-65
2023/09/26 07:36:09;;;;;;;10.15;4.07;;;;;;;20.31;53.07;95277.31;5097247;28;20196;-66
2023/09/26 07:38:36;;;;;;;10.32;4.13;;;;;;;20.41;52.79;95270.06;5097045;28;20200;-66
2023/09/26 07:41:03;;;;;;;9.82;4.40;;;;;;;20.51;53.46;95265.59;5097304;28;20202;-66
2023/09/26 07:43:34;;;;;;;7.57;4.03;;;;;;;20.46;52.44;95277.22;5097031;28;20294;-66
2023/09/26 07:46:07;;;;;;;10.70;4.00;;;;;;;20.33;52.92;95265.69;5097329;28;20263;-66
2023/09/26 07:48:39;;;;;;;7.40;4.20;;;;;;;20.33;52.67;95266.47;5096940;28;20199;-66
2023/09/26 07:51:07;;;;;;;9.90;4.72;;;;;;;20.29;51.63;95262.91;5097037;28;20199;-66
2023/09/26 07:53:35;;;;;;;6.22;4.70;;;;;;;20.34;52.38;95261.72;5114114;28;20279;-66
2023/09/26 07:56:03;;;;;;;8.55;4.63;;;;;;;20.28;51.59;95257.75;5097401;28;20195;-66
2023/09/26 07:58:31;;;;;;;8.82;4.40;;;;;;;20.32;51.97;95253.69;5113663;28;20200;-66
2023/09/26 08:01:00;;;;;;;8.85;4.30;;;;;;;20.35;50.98;95252.88;5097748;28;20211;-66
2023/09/26 08:03:30;;;;;;;6.88;4.68;;;;;;;20.39;51.11;95256.44;5100374;28;20196;-65
2023/09/26 08:06:04;;;;;;;8.65;4.18;;;;;;;20.37;51.81;95255.25;5100881;28;20726;-65
2023/09/26 08:08:31;;;;;;;7.15;4.20;;;;;;;20.54;51.68;95247.97;5100569;28;20228;-66
2023/09/26 08:11:08;;;;;;;4.93;4.10;;;;;;;20.77;50.67;95262.19;5117747;28;20208;-66
2023/09/26 08:13:39;;;;;;;10.90;4.20;;;;;;;20.67;49.98;95260.25;5118425;28;20252;-66
2023/09/26 08:16:08;;;;;;;9.13;3.92;;;;;;;20.72;50.12;95251.41;5118349;28;20238;-65
2023/09/26 08:18:39;;;;;;;7.32;4.07;;;;;;;20.87;50.18;95252.84;5100239;28;20227;-65
2023/09/26 08:21:06;;;;;;;6.40;4.15;;;;;;;21.03;50.06;95245.91;5117973;28;20180;-65
2023/09/26 08:23:34;;;;;;;12.95;4.30;;;;;;;21.15;48.33;95253.78;5118243;28;20183;-66
2023/09/26 08:26:03;;;;;;;9.48;4.30;;;;;;;21.15;48.27;95245.38;5100665;28;20218;-66
2023/09/26 08:28:32;;;;;;;8.10;4.00;;;;;;;21.30;48.17;95240.38;5100381;28;20559;-65
2023/09/26 08:31:05;;;;;;;7.45;3.80;;;;;;;21.48;47.20;95237.41;5099750;28;20206;-66
2023/09/26 08:33:33;;;;;;;9.30;4.50;;;;;;;21.37;46.93;95241.13;5100144;28;20197;-66
2023/09/26 08:36:05;;;;;;;7.90;3.88;;;;;;;21.19;47.84;95236.91;5117699;28;20187;-66
2023/09/26 08:38:33;;;;;;;6.97;4.50;;;;;;;21.30;48.06;95231.97;5100378;28;20202;-66
2023/09/26 08:41:01;;;;;;;10.95;4.00;;;;;;;21.49;47.31;95242.59;5100048;28;20256;-65
2023/09/26 08:43:29;;;;;;;9.18;4.38;;;;;;;21.47;46.61;95233.81;5099872;28;20290;-65
2023/09/26 08:45:57;;;;;;;7.70;4.35;;;;;;;21.58;47.39;95233.69;5099541;28;20195;-66
2023/09/26 08:48:27;;;;;;;8.98;4.50;;;;;;;21.81;46.94;95238.56;5099958;28;20196;-65
2023/09/26 08:50:55;;;;;;;7.57;4.03;;;;;;;21.96;46.27;95239.97;5099845;28;20537;-66
2023/09/26 08:53:25;;;;;;;6.70;4.57;;;;;;;22.07;45.66;95242.63;5099404;28;20187;-65
2023/09/26 08:55:54;;;;;;;8.88;3.92;;;;;;;22.15;44.46;95232.91;5099837;28;20626;-65
2023/09/26 08:58:22;;;;;;;9.45;4.05;;;;;;;22.17;44.47;95238.09;5099567;28;20203;-65
2023/09/26 09:00:50;;;;;;;5.80;4.00;;;;;;;22.33;43.99;95241.88;5116392;28;20204;-65
2023/09/26 09:03:18;;;;;;;11.10;6.75;;;;;;;22.58;44.11;95237.84;5099323;28;20290;-65
2023/09/26 09:05:45;;;;;;;9.70;4.03;;;;;;;22.80;43.26;95233.47;5099288;28;20207;-65
2023/09/26 09:08:18;;;;;;;8.65;3.95;;;;;;;22.79;42.87;95231.06;5099376;28;20223;-65
2023/09/26 09:10:52;;;;;;;7.63;4.07;;;;;;;22.94;41.77;95238.03;5099656;28;20203;-65
2023/09/26 09:13:30;;;;;;;9.55;3.95;;;;;;;23.08;41.02;95228.56;5115740;28;20218;-66
2023/09/26 09:16:15;;;;;;;9.18;3.97;;;;;;;23.22;41.56;95224.69;5117208;28;20193;-65
2023/09/26 09:18:44;;;;;;;6.65;3.65;;;;;;;23.41;42.06;95221.06;5099226;28;20219;-66
2023/09/26 09:21:22;;;;;;;7.00;3.85;;;;;;;23.54;40.91;95219.19;5098918;28;20202;-65
2023/09/26 09:23:51;;;;;;;6.25;3.90;;;;;;;23.55;40.55;95217.19;5099528;28;20194;-66
2023/09/26 09:26:27;;;;;;;10.48;4.20;;;;;;;23.62;40.52;95214.22;5099475;28;20578;-66
2023/09/26 09:28:58;;;;;;;6.20;3.80;;;;;;;23.76;40.57;95215.97;5116634;28;20206;-66
2023/09/26 09:31:27;;;;;;;5.55;3.35;;;;;;;23.86;39.98;95208.53;5095345;28;20670;-66
2023/09/26 09:33:56;;;;;;;4.70;3.55;;;;;;;23.70;40.46;95207.22;5112585;28;20196;-66
2023/09/26 09:36:28;;;;;;;7.47;3.67;;;;;;;23.67;40.29;95212.94;5095220;28;20537;-66
2023/09/26 09:38:56;;;;;;;7.50;3.95;;;;;;;23.72;40.95;95216.03;5096206;28;20188;-66
2023/09/26 09:41:27;;;;;;;6.07;3.47;;;;;;;23.61;40.47;95223.09;5096344;28;20188;-66
2023/09/26 09:46:44;;;;;;;8.35;3.85;;;;;;;23.21;41.59;95223.91;5096314;28;20203;-66
2023/09/26 09:49:11;;;;;;;9.25;3.67;;;;;;;23.12;41.41;95215.22;5096151;28;20181;-66
2023/09/26 09:51:41;;;;;;;6.18;3.80;;;;;;;23.12;42.05;95217.25;5095555;28;20200;-66
2023/09/26 09:54:18;;;;;;;8.32;4.20;;;;;;;23.00;41.55;95221.47;5095586;28;20245;-66
2023/09/26 09:56:48;;;;;;;5.88;3.60;;;;;;;22.80;41.96;95222.22;5095354;28;20196;-66
2023/09/26 09:59:17;;;;;;;6.53;3.70;;;;;;;22.87;42.32;95217.66;5095025;28;20287;-66
2023/09/26 10:01:45;;;;;;;6.13;3.92;;;;;;;23.22;42.03;95211.41;5094832;28;20196;-66
2023/09/26 10:04:15;;;;;;;7.35;4.00;;;;;;;23.32;41.78;95200.38;5111893;28;20254;-66
2023/09/26 10:06:44;;;;;;;6.15;4.00;;;;;;;23.15;42.22;95208.72;5095153;28;20230;-66
2023/09/26 10:09:11;;;;;;;10.88;4.45;;;;;;;23.23;42.23;95195.31;5095832;28;20264;-66
2023/09/26 10:11:39;;;;;;;5.72;3.45;;;;;;;23.12;42.39;95209.59;5095581;28;20193;-66
2023/09/26 10:14:11;;;;;;;9.85;4.80;;;;;;;23.35;43.31;95191.88;5094840;28;20211;-66
2023/09/26 10:16:39;;;;;;;6.35;4.03;;;;;;;23.66;42.70;95188.81;5094848;28;20283;-66
2023/09/26 10:19:08;;;;;;;5.75;3.90;;;;;;;23.84;41.58;95189.22;5094504;28;20192;-66
2023/09/26 10:21:39;;;;;;;9.43;4.95;;;;;;;23.75;41.80;95186.22;5095013;28;20249;-66
2023/09/26 10:24:28;;;;;;;11.10;5.45;;;;;;;23.63;42.34;95186.84;5111033;28;20215;-66
2023/09/26 10:27:00;;;;;;;8.75;4.63;;;;;;;23.36;42.42;95189.84;5095561;28;20204;-66
2023/09/26 10:29:30;;;;;;;8.75;4.30;;;;;;;23.22;43.54;95180.47;5094273;28;20215;-66
2023/09/26 10:32:00;;;;;;;9.52;4.80;;;;;;;23.51;43.37;95177.06;5094342;28;20247;-66
2023/09/26 10:34:34;;;;;;;8.07;4.70;;;;;;;23.45;42.78;95190.84;5094401;28;20298;-66
2023/09/26 10:37:02;;;;;;;7.82;4.53;;;;;;;23.59;43.75;95177.69;5111626;28;20196;-66
2023/09/26 10:39:38;;;;;;;8.05;4.22;;;;;;;23.85;43.28;95171.09;5111365;28;20196;-66
2023/09/26 10:42:10;;;;;;;8.10;4.50;;;;;;;24.03;41.89;95173.50;5094937;28;20195;-66
2023/09/26 10:44:43;;;;;;;7.38;4.43;;;;;;;24.10;41.91;95170.53;5094353;28;20197;-66
2023/09/26 10:47:12;;;;;;;10.13;4.10;;;;;;;23.94;42.37;95176.94;5093964;28;20219;-66
2023/09/26 10:49:40;;;;;;;7.57;4.82;;;;;;;24.02;42.15;95186.81;5094843;28;20198;-66
2023/09/26 10:52:09;;;;;;;7.00;6.05;;;;;;;24.09;42.34;95171.75;5094811;28;20200;-66
2023/09/26 10:54:41;;;;;;;8.13;4.55;;;;;;;24.30;42.24;95162.00;5094137;28;20208;-66
2023/09/26 10:57:08;;;;;;;7.60;4.70;;;;;;;24.49;41.27;95168.81;5094294;28;20192;-66
2023/09/26 10:59:36;;;;;;;6.45;3.88;;;;;;;24.61;42.07;95168.09;5095029;28;20283;-66
2023/09/26 11:02:06;;;;;;;6.07;4.15;;;;;;;24.70;41.19;95164.66;5094144;28;20299;-66
2023/09/26 11:04:35;;;;;;;9.63;4.32;;;;;;;24.53;40.24;95171.53;5094340;28;20204;-66
2023/09/26 11:07:05;;;;;;;7.13;4.45;;;;;;;24.27;40.86;95168.50;5093914;28;20314;-66
2023/09/26 11:09:34;;;;;;;6.45;4.28;;;;;;;24.32;41.83;95162.34;5094177;28;20208;-66
2023/09/26 11:12:03;;;;;;;7.78;4.30;;;;;;;24.39;41.60;95161.38;5094527;28;20295;-66
2023/09/26 11:14:32;;;;;;;9.25;4.80;;;;;;;24.38;41.55;95154.94;5093911;28;20201;-66
2023/09/26 11:17:00;;;;;;;10.02;4.68;;;;;;;24.08;41.64;95160.94;5093926;28;20612;-66
2023/09/26 11:19:48;;;;;;;8.43;4.03;;;;;;;23.82;42.99;95146.66;5093806;28;20200;-66
2023/09/26 11:22:15;;;;;;;7.78;4.45;;;;;;;23.87;42.83;95148.94;5094413;28;20611;-66
2023/09/26 11:24:43;;;;;;;7.05;4.45;;;;;;;23.72;42.38;95159.72;5094203;28;20215;-66
2023/09/26 11:27:10;;;;;;;7.50;4.50;;;;;;;23.76;43.05;95149.19;5094869;28;20521;-66
2023/09/26 11:29:37;;;;;;;8.13;4.72;;;;;;;23.90;42.54;95147.28;5094966;28;20216;-66
2023/09/26 11:32:07;;;;;;;8.73;4.47;;;;;;;24.01;42.91;95156.25;5105327;28;20618;-66
2023/09/26 11:34:35;;;;;;;4.50;3.85;;;;;;;24.03;43.20;95153.78;5115187;28;20203;-66
2023/09/26 11:37:07;;;;;;;5.75;4.00;;;;;;;24.09;42.55;95152.03;5100972;28;20290;-66
2023/09/26 11:39:35;;;;;;;6.63;4.43;;;;;;;24.16;43.07;95142.63;5118879;28;20192;-66
2023/09/26 11:42:10;;;;;;;8.07;4.65;;;;;;;24.12;41.97;95144.75;5101077;28;20204;-66
2023/09/26 11:44:38;;;;;;;5.13;4.35;;;;;;;24.16;42.85;95143.41;5101116;28;20548;-66